Time;durP1;ratioP1;P1;durP2;ratioP2;P2;SDS_P1;SDS_P2;PMS_P1;PMS_P2;Temp;Humidity;BMP_temperature;BMP_pressure;BME280_temperature;BME280_humidity;BME280_pressure;Samples;Min_cycle;Max_cycle;Signal;HPM_P1;HPM_P2
2021/01/08 00:00:18;;;;;;;22.87;17.17;;;3.10;99.90;;;;;;5144158;27;20469;-28
2021/01/08 00:02:45;;;;;;;25.50;17.70;;;3.20;99.90;;;;;;5130817;27;20438;-29
2021/01/08 00:05:13;;;;;;;25.47;18.10;;;3.20;99.90;;;;;;5136079;27;20441;-28
2021/01/08 00:07:39;;;;;;;22.00;16.30;;;3.20;99.90;;;;;;5150350;27;21081;-28
2021/01/08 00:10:08;;;;;;;22.80;16.90;;;3.20;99.90;;;;;;5147868;27;20436;-28
2021/01/08 00:12:36;;;;;;;24.20;17.70;;;3.20;99.90;;;;;;5147122;27;20437;-28
2021/01/08 00:15:06;;;;;;;23.97;18.00;;;3.30;99.90;;;;;;5146353;27;20492;-28
2021/01/08 00:17:33;;;;;;;22.10;16.50;;;3.30;99.90;;;;;;5145798;27;20861;-28
2021/01/08 00:20:00;;;;;;;26.83;18.03;;;3.20;99.90;;;;;;5150451;27;20441;-27
2021/01/08 00:22:26;;;;;;;27.27;17.83;;;3.30;99.90;;;;;;5151254;27;20480;-30
2021/01/08 00:24:54;;;;;;;25.33;18.80;;;3.20;99.90;;;;;;5150083;27;20433;-30
2021/01/08 00:27:21;;;;;;;23.47;16.70;;;3.20;99.90;;;;;;5150258;27;20437;-29
2021/01/08 00:29:48;;;;;;;24.70;16.50;;;3.30;99.90;;;;;;5132593;27;20437;-28
2021/01/08 00:32:16;;;;;;;23.23;17.30;;;3.30;99.90;;;;;;5140653;27;20434;-27
2021/01/08 00:34:43;;;;;;;22.43;15.93;;;3.30;99.90;;;;;;5149730;27;20763;-29
2021/01/08 00:37:10;;;;;;;24.80;17.73;;;3.30;99.90;;;;;;5150069;27;20567;-28
2021/01/08 00:39:37;;;;;;;21.63;15.97;;;3.30;99.90;;;;;;5135030;27;20467;-29
2021/01/08 00:42:04;;;;;;;25.30;17.53;;;3.30;99.90;;;;;;5128724;28;20434;-30
2021/01/08 00:44:31;;;;;;;24.53;16.63;;;3.30;99.90;;;;;;5112104;28;20553;-29
2021/01/08 00:46:58;;;;;;;21.13;16.20;;;3.30;99.90;;;;;;5131062;28;20441;-29
2021/01/08 00:49:25;;;;;;;19.33;15.97;;;3.30;99.90;;;;;;5142338;27;20455;-28
2021/01/08 00:51:53;;;;;;;22.20;15.60;;;3.30;99.90;;;;;;5132159;27;20882;-28
2021/01/08 00:54:21;;;;;;;24.53;17.20;;;3.30;99.90;;;;;;5150020;27;20457;-31
2021/01/08 00:56:55;;;;;;;24.03;16.60;;;3.40;99.90;;;;;;5130510;27;20479;-27
2021/01/08 00:59:41;;;;;;;24.40;16.57;;;3.40;99.90;;;;;;5113693;28;20656;-29
2021/01/08 01:02:08;;;;;;;24.20;16.63;;;3.30;99.90;;;;;;5127068;28;20593;-27
2021/01/08 01:04:36;;;;;;;22.50;15.90;;;3.30;99.90;;;;;;5125683;28;20449;-28
2021/01/08 01:07:02;;;;;;;22.70;15.83;;;3.30;99.90;;;;;;5126542;28;20687;-28
2021/01/08 01:09:29;;;;;;;20.40;15.00;;;3.30;99.90;;;;;;5128650;27;20507;-30
2021/01/08 01:11:56;;;;;;;19.80;15.23;;;3.20;99.90;;;;;;5130721;27;20491;-27
2021/01/08 01:14:22;;;;;;;18.73;14.67;;;3.30;99.90;;;;;;5129742;28;20548;-31
2021/01/08 01:16:49;;;;;;;21.87;14.93;;;3.30;99.90;;;;;;5130917;28;20754;-27
2021/01/08 01:19:15;;;;;;;21.00;14.30;;;3.20;99.90;;;;;;5135341;27;20441;-29
2021/01/08 01:21:43;;;;;;;23.03;14.80;;;3.20;99.90;;;;;;5131686;27;20462;-29
2021/01/08 01:24:10;;;;;;;22.53;16.17;;;3.20;99.90;;;;;;5150938;27;20433;-27
2021/01/08 01:26:36;;;;;;;19.50;14.40;;;3.20;99.90;;;;;;5135218;27;20537;-27
2021/01/08 01:29:03;;;;;;;20.27;15.10;;;3.10;99.90;;;;;;5135083;27;20440;-28
2021/01/08 01:31:30;;;;;;;22.70;14.50;;;3.10;99.90;;;;;;5155116;27;20441;-29
2021/01/08 01:33:58;;;;;;;21.40;14.77;;;3.10;99.90;;;;;;5154701;27;20549;-28
2021/01/08 01:36:25;;;;;;;23.47;15.17;;;3.00;99.90;;;;;;5154898;27;21044;-28
2021/01/08 01:38:52;;;;;;;18.97;15.40;;;3.00;99.90;;;;;;5150731;27;20938;-28
2021/01/08 01:41:19;;;;;;;20.50;14.77;;;3.10;99.90;;;;;;5134212;27;20438;-29
2021/01/08 01:43:46;;;;;;;20.50;15.17;;;3.10;99.90;;;;;;5133288;27;20516;-28
2021/01/08 01:46:19;;;;;;;19.13;15.27;;;3.10;99.90;;;;;;5134005;27;20885;-29
2021/01/08 01:48:46;;;;;;;18.33;14.13;;;3.00;99.90;;;;;;5134328;27;20434;-30
2021/01/08 01:51:13;;;;;;;22.03;15.27;;;3.00;99.90;;;;;;5149040;27;20783;-27
2021/01/08 01:53:39;;;;;;;26.73;18.33;;;3.00;99.90;;;;;;5148257;27;20650;-28
2021/01/08 01:56:07;;;;;;;21.67;15.77;;;3.00;99.90;;;;;;5147098;27;20452;-28
2021/01/08 01:58:33;;;;;;;18.13;14.60;;;3.00;99.90;;;;;;5148518;27;20533;-28
2021/01/08 02:01:00;;;;;;;23.27;15.80;;;3.00;99.90;;;;;;5149980;27;20607;-27
2021/01/08 02:03:32;;;;;;;22.27;14.37;;;3.00;99.90;;;;;;5152281;27;20449;-27
2021/01/08 02:06:05;;;;;;;21.60;14.80;;;3.00;99.90;;;;;;5152320;27;20882;-27
2021/01/08 02:08:32;;;;;;;24.43;16.80;;;2.90;99.90;;;;;;5153639;27;20444;-28
2021/01/08 02:11:02;;;;;;;24.17;16.80;;;2.90;99.90;;;;;;5140939;27;20719;-28
2021/01/08 02:13:39;;;;;;;24.93;16.93;;;2.90;99.90;;;;;;5132757;27;20580;-28
2021/01/08 02:16:07;;;;;;;28.40;17.20;;;2.80;99.90;;;;;;5131647;27;20503;-29
2021/01/08 02:18:35;;;;;;;22.80;16.17;;;2.80;99.90;;;;;;5131887;27;21097;-29
2021/01/08 02:21:07;;;;;;;21.40;14.30;;;2.80;99.90;;;;;;5145099;27;20460;-30
2021/01/08 02:23:41;;;;;;;29.57;18.17;;;2.80;99.90;;;;;;5135008;27;20444;-29
2021/01/08 02:26:09;;;;;;;21.10;15.97;;;2.80;99.90;;;;;;5153447;27;20811;-29
2021/01/08 02:28:36;;;;;;;22.60;15.33;;;2.80;99.90;;;;;;5139771;27;20721;-27
2021/01/08 02:31:03;;;;;;;21.97;16.17;;;2.70;99.90;;;;;;5140643;27;20433;-28
2021/01/08 02:33:31;;;;;;;23.30;15.77;;;2.70;99.90;;;;;;5150775;27;20509;-28
2021/01/08 02:36:01;;;;;;;25.37;16.40;;;2.70;99.90;;;;;;5151501;27;20434;-30
2021/01/08 02:38:28;;;;;;;25.33;16.60;;;2.50;99.90;;;;;;5152348;27;20746;-28
2021/01/08 02:40:57;;;;;;;24.03;16.53;;;2.50;99.90;;;;;;5153887;27;20440;-30
2021/01/08 02:43:27;;;;;;;29.17;16.83;;;2.50;99.90;;;;;;5134395;27;20438;-30
2021/01/08 02:45:54;;;;;;;23.47;15.53;;;2.50;99.90;;;;;;5132194;27;20429;-28
2021/01/08 02:48:21;;;;;;;25.80;18.97;;;2.40;99.90;;;;;;5133017;27;20431;-29
2021/01/08 02:50:49;;;;;;;24.67;16.67;;;2.40;99.90;;;;;;5132372;27;20486;-28
2021/01/08 02:53:18;;;;;;;28.23;17.70;;;2.40;99.90;;;;;;5132449;27;20480;-28
2021/01/08 02:55:51;;;;;;;28.20;17.77;;;2.30;99.90;;;;;;5135719;27;20434;-28
2021/01/08 02:58:19;;;;;;;28.70;18.17;;;2.30;99.90;;;;;;5131468;27;20471;-28
2021/01/08 03:00:47;;;;;;;26.63;18.50;;;2.30;99.90;;;;;;5131225;27;20477;-28
2021/01/08 03:03:15;;;;;;;26.43;18.70;;;2.40;99.90;;;;;;5130362;27;20434;-28
2021/01/08 03:05:42;;;;;;;25.87;17.13;;;2.40;99.90;;;;;;5133471;27;20950;-28
2021/01/08 03:08:09;;;;;;;22.93;17.73;;;2.40;99.90;;;;;;5132554;27;21006;-27
2021/01/08 03:10:35;;;;;;;24.50;17.63;;;2.30;99.90;;;;;;5152765;27;20498;-27
2021/01/08 03:13:04;;;;;;;25.60;18.17;;;2.30;99.90;;;;;;5152736;27;20438;-30
2021/01/08 03:15:31;;;;;;;21.83;15.97;;;2.30;99.90;;;;;;5128421;27;20473;-30
2021/01/08 03:17:58;;;;;;;24.67;16.20;;;2.30;99.90;;;;;;5128579;27;20457;-30
2021/01/08 03:20:25;;;;;;;22.70;16.70;;;2.40;99.90;;;;;;5126604;27;20733;-28
2021/01/08 03:22:52;;;;;;;23.40;17.60;;;2.50;99.90;;;;;;5124975;27;20453;-27
2021/01/08 03:25:18;;;;;;;25.97;17.33;;;2.60;99.90;;;;;;5128693;27;20449;-27
2021/01/08 03:27:45;;;;;;;22.80;16.43;;;2.70;99.90;;;;;;5131787;27;20522;-29
2021/01/08 03:30:13;;;;;;;24.00;18.10;;;2.70;99.90;;;;;;5144827;27;20437;-28
2021/01/08 03:32:40;;;;;;;23.77;17.00;;;2.60;99.90;;;;;;5150914;27;20441;-30
2021/01/08 03:35:08;;;;;;;22.00;16.50;;;2.50;99.90;;;;;;5151800;27;20475;-29
2021/01/08 03:37:36;;;;;;;24.27;16.40;;;2.50;99.90;;;;;;5134893;27;20518;-28
2021/01/08 03:40:05;;;;;;;31.17;18.50;;;2.50;99.90;;;;;;5131551;27;20448;-28
2021/01/08 03:42:32;;;;;;;22.60;16.00;;;2.60;99.90;;;;;;5132500;27;20928;-30
2021/01/08 03:44:59;;;;;;;25.43;17.70;;;2.60;99.90;;;;;;5131310;27;20491;-29
2021/01/08 03:47:25;;;;;;;25.17;16.50;;;2.60;99.90;;;;;;5145165;27;21104;-30
2021/01/08 03:49:52;;;;;;;27.70;18.93;;;2.60;99.90;;;;;;5151441;27;20452;-28
2021/01/08 03:52:19;;;;;;;28.93;18.53;;;2.70;99.90;;;;;;5137538;27;20866;-27
2021/01/08 03:54:46;;;;;;;22.43;17.13;;;2.70;99.90;;;;;;5131691;27;20494;-29
2021/01/08 03:57:12;;;;;;;27.00;17.20;;;2.70;99.90;;;;;;5130582;27;20453;-29
2021/01/08 03:59:39;;;;;;;26.97;17.40;;;2.70;99.90;;;;;;5133085;27;20533;-27
2021/01/08 04:02:06;;;;;;;24.07;17.17;;;2.60;99.90;;;;;;5120727;27;20522;-27
2021/01/08 04:04:32;;;;;;;25.07;17.77;;;2.60;99.90;;;;;;5136565;27;20506;-27
2021/01/08 04:06:59;;;;;;;25.87;17.67;;;2.60;99.90;;;;;;5144526;27;20453;-28
2021/01/08 04:09:27;;;;;;;27.60;19.20;;;2.60;99.90;;;;;;5127526;27;20442;-27
2021/01/08 04:11:53;;;;;;;27.17;16.50;;;2.60;99.90;;;;;;5135383;27;20425;-28
2021/01/08 04:14:20;;;;;;;27.50;18.60;;;2.60;99.90;;;;;;5125751;27;20506;-27
2021/01/08 04:16:46;;;;;;;25.83;17.90;;;2.60;99.90;;;;;;5145264;27;20448;-29
2021/01/08 04:19:13;;;;;;;25.63;17.10;;;2.60;99.90;;;;;;5145105;27;20527;-30
2021/01/08 04:21:40;;;;;;;27.13;18.67;;;2.60;99.90;;;;;;5145236;27;20450;-27
2021/01/08 04:24:07;;;;;;;27.97;18.50;;;2.70;99.90;;;;;;5150304;27;20433;-27
2021/01/08 04:26:35;;;;;;;21.53;16.87;;;2.60;99.90;;;;;;5150864;27;20513;-28
2021/01/08 04:29:01;;;;;;;25.47;17.77;;;2.70;99.90;;;;;;5149435;27;21090;-30
2021/01/08 04:31:28;;;;;;;22.37;17.13;;;2.70;99.90;;;;;;5149718;27;20914;-30
2021/01/08 04:33:54;;;;;;;28.27;18.07;;;2.70;99.90;;;;;;5129349;27;20561;-27
2021/01/08 04:36:21;;;;;;;22.63;17.63;;;2.70;99.90;;;;;;5141895;27;20566;-28
2021/01/08 04:38:48;;;;;;;21.77;14.60;;;2.70;99.90;;;;;;5150793;27;20453;-28
2021/01/08 04:41:16;;;;;;;26.07;17.30;;;2.70;99.90;;;;;;5149428;27;20433;-28
2021/01/08 04:43:43;;;;;;;24.60;17.57;;;2.80;99.90;;;;;;5139672;27;20502;-30
2021/01/08 04:46:15;;;;;;;25.33;17.47;;;2.80;99.90;;;;;;5149358;27;20493;-28
2021/01/08 04:48:43;;;;;;;27.73;18.73;;;2.80;99.90;;;;;;5149158;27;20452;-27
2021/01/08 04:51:11;;;;;;;21.83;16.67;;;2.80;99.90;;;;;;5149687;27;20433;-28
2021/01/08 04:53:38;;;;;;;26.00;19.03;;;2.80;99.90;;;;;;5131081;27;20466;-29
2021/01/08 04:56:07;;;;;;;26.37;18.07;;;2.70;99.90;;;;;;5111403;27;20473;-28
2021/01/08 04:58:34;;;;;;;24.97;15.13;;;2.70;99.90;;;;;;5150409;27;20456;-27
2021/01/08 05:01:03;;;;;;;26.30;17.87;;;2.60;99.90;;;;;;5150237;27;20472;-28
2021/01/08 05:03:30;;;;;;;26.40;17.63;;;2.60;99.90;;;;;;5133383;27;20709;-28
2021/01/08 05:05:57;;;;;;;26.43;17.40;;;2.60;99.90;;;;;;5126119;27;20515;-29
2021/01/08 05:08:24;;;;;;;30.07;17.47;;;2.60;99.90;;;;;;5126774;27;20449;-28
2021/01/08 05:10:51;;;;;;;29.00;19.13;;;2.60;99.90;;;;;;5124117;27;20491;-29
2021/01/08 05:13:18;;;;;;;24.67;16.90;;;2.60;99.90;;;;;;5130213;27;20752;-27
2021/01/08 05:15:53;;;;;;;23.47;16.20;;;2.60;99.90;;;;;;5148912;27;20436;-27
2021/01/08 05:18:21;;;;;;;23.00;16.20;;;2.60;99.90;;;;;;5149752;27;20838;-27
2021/01/08 05:20:50;;;;;;;20.93;15.43;;;2.60;99.90;;;;;;5150811;27;20437;-29
2021/01/08 05:23:17;;;;;;;23.07;16.00;;;2.60;99.90;;;;;;5141919;27;21024;-28
2021/01/08 05:25:46;;;;;;;20.70;14.67;;;2.60;99.90;;;;;;5130400;27;20453;-28
2021/01/08 05:28:16;;;;;;;27.50;17.87;;;2.60;99.90;;;;;;5129493;27;20449;-28
2021/01/08 05:30:42;;;;;;;20.10;13.53;;;2.60;99.90;;;;;;5141485;27;20444;-26
2021/01/08 05:33:13;;;;;;;21.60;15.30;;;2.60;99.90;;;;;;5141011;27;20438;-27
2021/01/08 05:35:41;;;;;;;20.57;14.20;;;2.60;99.90;;;;;;5126438;27;20598;-27
2021/01/08 05:38:10;;;;;;;20.60;13.47;;;2.60;99.90;;;;;;5127118;27;20486;-27
2021/01/08 05:40:39;;;;;;;21.40;14.40;;;2.60;99.90;;;;;;5130622;27;20452;-27
2021/01/08 05:43:05;;;;;;;20.80;16.17;;;2.60;99.90;;;;;;5140328;27;20429;-28
2021/01/08 05:45:32;;;;;;;17.90;13.87;;;2.60;99.90;;;;;;5147085;27;20448;-29
2021/01/08 05:48:03;;;;;;;18.00;14.00;;;2.70;99.90;;;;;;5126385;27;20438;-28
2021/01/08 05:50:31;;;;;;;20.37;13.77;;;2.70;99.90;;;;;;5126859;27;20568;-27
2021/01/08 05:53:04;;;;;;;19.90;13.00;;;2.70;99.90;;;;;;5126020;27;20481;-28
2021/01/08 05:55:35;;;;;;;14.80;11.77;;;2.80;99.90;;;;;;5137324;27;20455;-28
2021/01/08 05:58:17;;;;;;;17.17;12.40;;;2.80;99.90;;;;;;5125238;27;20943;-28
2021/01/08 06:00:43;;;;;;;17.80;12.50;;;2.80;99.90;;;;;;5125419;27;20610;-28
2021/01/08 06:03:12;;;;;;;16.63;11.30;;;2.80;99.90;;;;;;5127236;27;20438;-29
2021/01/08 06:05:40;;;;;;;17.80;13.20;;;2.70;99.90;;;;;;5121560;27;20430;-28
2021/01/08 06:08:09;;;;;;;18.30;12.63;;;2.70;99.90;;;;;;5122217;27;20483;-27
2021/01/08 06:10:38;;;;;;;17.70;14.80;;;2.80;99.90;;;;;;5137202;27;20509;-28
2021/01/08 06:13:06;;;;;;;16.33;12.70;;;2.80;99.90;;;;;;5140777;27;20442;-28
2021/01/08 06:15:35;;;;;;;17.47;12.30;;;2.80;99.90;;;;;;5120254;27;20462;-27
2021/01/08 06:18:02;;;;;;;28.17;17.23;;;2.80;99.90;;;;;;5123819;27;20445;-30
2021/01/08 06:20:29;;;;;;;19.20;12.37;;;2.80;99.90;;;;;;5122511;27;20950;-27
2021/01/08 06:22:56;;;;;;;19.27;14.07;;;2.80;99.90;;;;;;5119626;27;20450;-31
2021/01/08 06:25:26;;;;;;;42.67;25.70;;;2.80;99.90;;;;;;5119054;27;20438;-28
2021/01/08 06:27:54;;;;;;;23.50;17.03;;;2.90;99.90;;;;;;5121832;27;20435;-28
2021/01/08 06:30:26;;;;;;;22.13;16.73;;;2.90;99.90;;;;;;5107229;27;20463;-28
2021/01/08 06:33:02;;;;;;;18.13;13.90;;;2.90;99.90;;;;;;5098679;27;20548;-28
2021/01/08 06:35:31;;;;;;;13.47;10.30;;;2.90;99.90;;;;;;5093309;27;20466;-28
2021/01/08 06:37:59;;;;;;;14.33;12.00;;;2.90;99.90;;;;;;5117078;27;20506;-28
2021/01/08 06:40:41;;;;;;;12.63;10.40;;;2.80;99.90;;;;;;5136060;27;20489;-29
2021/01/08 06:43:18;;;;;;;12.43;10.03;;;2.70;99.90;;;;;;5115983;27;20433;-30
2021/01/08 06:45:54;;;;;;;11.30;9.83;;;2.70;99.90;;;;;;5118843;27;20525;-28
2021/01/08 06:48:24;;;;;;;12.57;10.40;;;2.70;99.90;;;;;;5121527;27;20433;-29
2021/01/08 06:50:54;;;;;;;19.60;9.70;;;2.70;99.90;;;;;;5138107;27;20474;-27
2021/01/08 06:53:25;;;;;;;14.37;10.73;;;2.70;99.90;;;;;;5127941;27;20439;-28
2021/01/08 06:55:55;;;;;;;25.50;17.30;;;2.80;99.90;;;;;;5113296;27;21140;-27
2021/01/08 06:58:22;;;;;;;26.53;16.00;;;2.80;99.90;;;;;;5117209;27;20441;-26
2021/01/08 07:00:52;;;;;;;13.43;9.80;;;2.80;99.90;;;;;;5117417;27;20468;-28
2021/01/08 07:03:21;;;;;;;11.20;9.30;;;2.90;99.90;;;;;;5113918;27;20491;-28
2021/01/08 07:05:49;;;;;;;14.87;11.70;;;2.90;99.90;;;;;;5120547;27;20445;-27
2021/01/08 07:08:17;;;;;;;13.57;11.67;;;2.90;99.90;;;;;;5128218;27;20445;-27
2021/01/08 07:10:52;;;;;;;15.20;10.70;;;2.90;99.90;;;;;;5108230;27;20491;-27
2021/01/08 07:13:30;;;;;;;15.20;10.93;;;3.00;99.90;;;;;;5108010;27;20452;-27
2021/01/08 07:15:57;;;;;;;16.07;10.97;;;3.00;99.90;;;;;;5107408;27;20560;-28
2021/01/08 07:18:28;;;;;;;14.20;10.57;;;3.00;99.90;;;;;;5116415;27;20445;-29
2021/01/08 07:20:55;;;;;;;12.30;9.60;;;3.00;99.90;;;;;;5119366;27;20621;-28
2021/01/08 07:23:26;;;;;;;13.23;10.10;;;3.00;99.90;;;;;;5121359;27;20550;-26
2021/01/08 07:25:54;;;;;;;11.17;8.80;;;3.00;99.90;;;;;;5122077;27;20445;-27
2021/01/08 07:28:21;;;;;;;13.80;10.53;;;3.00;99.90;;;;;;5105920;27;20449;-29
2021/01/08 07:31:07;;;;;;;14.63;9.90;;;3.00;99.90;;;;;;5118080;27;20914;-27
2021/01/08 07:33:34;;;;;;;12.10;9.93;;;3.00;99.90;;;;;;5118888;27;20497;-29
2021/01/08 07:36:20;;;;;;;13.17;9.50;;;2.90;99.90;;;;;;5123480;27;21379;-28
2021/01/08 07:38:46;;;;;;;12.63;10.00;;;2.90;99.90;;;;;;5123506;27;20537;-28
2021/01/08 07:41:28;;;;;;;16.23;11.03;;;2.80;99.90;;;;;;5113040;27;20465;-28
2021/01/08 07:43:55;;;;;;;14.60;10.07;;;2.80;99.90;;;;;;5123580;27;20437;-29
2021/01/08 07:46:28;;;;;;;16.03;9.63;;;2.80;99.90;;;;;;5102892;27;20599;-28
2021/01/08 07:48:56;;;;;;;12.90;9.23;;;2.80;99.90;;;;;;5101700;27;20446;-28
2021/01/08 07:51:23;;;;;;;17.03;10.23;;;2.80;99.90;;;;;;5091691;27;20879;-28
2021/01/08 07:53:52;;;;;;;18.27;10.70;;;2.90;99.90;;;;;;5116936;27;20475;-28
2021/01/08 07:56:21;;;;;;;13.70;10.27;;;3.00;99.90;;;;;;5101180;27;20796;-27
2021/01/08 07:58:57;;;;;;;16.07;9.87;;;3.00;99.90;;;;;;5104829;27;20678;-27
2021/01/08 08:01:24;;;;;;;13.60;10.80;;;3.00;99.90;;;;;;5104457;27;20441;-28
2021/01/08 08:03:59;;;;;;;16.47;10.40;;;3.00;99.90;;;;;;5118058;27;20440;-27
2021/01/08 08:06:27;;;;;;;18.23;11.07;;;2.90;99.90;;;;;;5122952;27;20475;-28
2021/01/08 08:08:57;;;;;;;15.60;11.30;;;2.90;99.90;;;;;;5124588;27;20505;-28
2021/01/08 08:11:27;;;;;;;15.17;11.30;;;2.70;99.90;;;;;;5106924;27;20446;-29
2021/01/08 08:13:54;;;;;;;14.17;12.23;;;2.70;99.90;;;;;;5120267;27;20500;-27
2021/01/08 08:16:32;;;;;;;15.83;10.97;;;2.80;99.90;;;;;;5123820;27;20468;-28
2021/01/08 08:18:59;;;;;;;14.70;11.43;;;2.80;99.90;;;;;;5117883;27;20898;-27
2021/01/08 08:21:26;;;;;;;17.00;10.70;;;2.90;99.90;;;;;;5101427;27;20450;-27
2021/01/08 08:23:54;;;;;;;14.10;11.10;;;3.00;99.90;;;;;;5118490;27;20762;-30
2021/01/08 08:26:21;;;;;;;14.50;13.00;;;3.10;99.90;;;;;;5122046;27;20440;-27
2021/01/08 08:29:01;;;;;;;15.30;11.57;;;3.00;99.90;;;;;;5122027;27;20526;-28
2021/01/08 08:31:30;;;;;;;12.43;10.37;;;3.10;99.90;;;;;;5120568;27;20480;-28
2021/01/08 08:33:57;;;;;;;14.17;9.93;;;3.00;99.90;;;;;;5115310;27;20457;-31
2021/01/08 08:36:26;;;;;;;16.97;12.93;;;3.00;99.90;;;;;;5119435;27;20510;-27
2021/01/08 08:38:57;;;;;;;18.63;14.50;;;3.00;99.90;;;;;;5121547;27;20932;-27
2021/01/08 08:41:26;;;;;;;14.87;11.70;;;3.10;99.90;;;;;;5123189;27;20634;-29
2021/01/08 08:44:03;;;;;;;14.70;12.20;;;3.10;99.90;;;;;;5117096;27;20434;-30
2021/01/08 08:46:47;;;;;;;13.00;10.37;;;3.20;99.90;;;;;;5104028;27;20462;-30
2021/01/08 08:49:15;;;;;;;16.20;11.60;;;3.20;99.90;;;;;;5096421;27;20457;-27
2021/01/08 08:51:47;;;;;;;14.60;10.57;;;3.30;99.90;;;;;;5112189;27;20917;-28
2021/01/08 08:54:14;;;;;;;13.77;11.47;;;3.30;99.90;;;;;;5112395;27;20466;-27
2021/01/08 08:56:52;;;;;;;13.77;11.00;;;3.30;99.90;;;;;;5110475;27;20544;-27
2021/01/08 08:59:39;;;;;;;16.87;12.83;;;3.30;99.90;;;;;;5120357;27;20490;-28
2021/01/08 09:02:06;;;;;;;13.93;11.77;;;3.30;99.90;;;;;;5107658;27;20493;-28
2021/01/08 09:04:33;;;;;;;14.40;11.70;;;3.20;99.90;;;;;;5104248;27;20527;-28
2021/01/08 09:07:07;;;;;;;18.93;12.03;;;3.20;99.90;;;;;;5108405;27;21062;-28
2021/01/08 09:09:39;;;;;;;16.70;11.77;;;3.30;99.90;;;;;;5111259;27;20540;-30
2021/01/08 09:12:15;;;;;;;14.93;11.00;;;3.30;99.90;;;;;;5122012;27;20444;-27
2021/01/08 09:14:47;;;;;;;15.17;11.80;;;3.20;99.90;;;;;;5123157;27;20468;-27
2021/01/08 09:17:20;;;;;;;17.30;10.13;;;3.10;99.90;;;;;;5112319;27;20557;-28
2021/01/08 09:19:52;;;;;;;16.63;11.00;;;3.10;99.90;;;;;;5117080;27;20465;-27
2021/01/08 09:22:20;;;;;;;16.53;11.20;;;3.10;99.90;;;;;;5120513;27;20444;-29
2021/01/08 09:24:49;;;;;;;16.43;10.20;;;3.10;99.90;;;;;;5123023;27;20445;-29
2021/01/08 09:27:16;;;;;;;15.70;10.60;;;3.00;99.90;;;;;;5114279;27;20708;-29
2021/01/08 09:29:44;;;;;;;13.97;10.37;;;3.00;99.90;;;;;;5111708;27;20680;-29
2021/01/08 09:32:10;;;;;;;14.60;10.50;;;3.10;99.90;;;;;;5109183;27;20524;-31
2021/01/08 09:34:37;;;;;;;15.80;10.93;;;3.00;99.90;;;;;;5107278;27;21424;-28
2021/01/08 09:37:15;;;;;;;12.20;10.10;;;3.00;99.90;;;;;;5095667;28;20975;-29
2021/01/08 09:39:44;;;;;;;15.50;11.77;;;3.00;99.90;;;;;;5093179;28;20449;-29
2021/01/08 09:42:11;;;;;;;13.53;10.07;;;2.90;99.90;;;;;;5094082;28;20495;-28
2021/01/08 09:44:39;;;;;;;15.47;10.40;;;2.90;99.90;;;;;;5110265;27;20850;-28
2021/01/08 09:47:08;;;;;;;15.97;10.80;;;2.90;99.90;;;;;;5112660;27;20525;-28
2021/01/08 09:49:39;;;;;;;12.70;10.70;;;2.80;99.90;;;;;;5111700;27;20442;-29
2021/01/08 09:52:08;;;;;;;11.20;9.40;;;2.90;99.90;;;;;;5100810;27;20927;-28
2021/01/08 09:54:46;;;;;;;13.37;10.47;;;3.00;99.90;;;;;;5114313;27;20999;-28
2021/01/08 09:57:25;;;;;;;16.60;14.17;;;3.00;99.90;;;;;;5099834;27;20434;-29
2021/01/08 09:59:56;;;;;;;19.60;13.37;;;3.00;99.90;;;;;;5101583;27;20479;-27
2021/01/08 10:02:36;;;;;;;14.43;11.07;;;3.10;99.90;;;;;;5099217;27;20434;-27
2021/01/08 10:05:03;;;;;;;14.20;11.30;;;3.20;99.90;;;;;;5115634;27;20442;-29
2021/01/08 10:07:41;;;;;;;13.10;9.80;;;3.30;99.90;;;;;;5102634;27;20458;-28
2021/01/08 10:10:11;;;;;;;10.77;9.70;;;3.40;99.90;;;;;;5098110;27;20446;-28
2021/01/08 10:12:45;;;;;;;13.40;10.70;;;3.40;99.90;;;;;;5099784;27;20438;-28
2021/01/08 10:15:13;;;;;;;12.47;10.00;;;3.30;99.90;;;;;;5108578;27;20472;-27
2021/01/08 10:17:47;;;;;;;12.67;10.03;;;3.30;99.90;;;;;;5112998;27;20615;-27
2021/01/08 10:20:15;;;;;;;12.33;9.53;;;3.20;99.90;;;;;;5107521;27;20727;-28
2021/01/08 10:22:46;;;;;;;11.97;10.17;;;3.10;99.90;;;;;;5114203;27;20449;-27
2021/01/08 10:25:25;;;;;;;10.83;9.00;;;3.10;99.90;;;;;;5107578;27;20449;-29
2021/01/08 10:27:52;;;;;;;13.70;9.70;;;3.10;99.90;;;;;;5101149;27;20441;-27
2021/01/08 10:30:20;;;;;;;14.00;10.40;;;3.00;99.90;;;;;;5098000;27;20601;-31
2021/01/08 10:32:47;;;;;;;13.43;11.13;;;2.90;99.90;;;;;;5110802;27;20441;-28
2021/01/08 10:35:14;;;;;;;13.27;10.33;;;2.90;99.90;;;;;;5096524;27;20816;-28
2021/01/08 10:37:40;;;;;;;16.70;10.83;;;3.10;99.90;;;;;;5101108;27;20738;-29
2021/01/08 10:40:08;;;;;;;14.30;10.53;;;3.10;99.90;;;;;;5111779;27;20440;-27
2021/01/08 10:42:35;;;;;;;14.67;11.23;;;3.20;99.90;;;;;;5125702;27;20437;-29
2021/01/08 10:45:02;;;;;;;11.93;9.63;;;3.20;99.90;;;;;;5105109;27;20473;-28
2021/01/08 10:47:28;;;;;;;13.33;10.20;;;3.30;99.90;;;;;;5100905;27;20438;-30
2021/01/08 10:49:55;;;;;;;13.80;10.50;;;3.40;99.90;;;;;;5107187;27;21130;-28
2021/01/08 10:52:22;;;;;;;12.07;10.50;;;3.40;99.90;;;;;;5101821;27;20457;-28
2021/01/08 10:54:48;;;;;;;12.53;9.93;;;3.50;99.90;;;;;;5106475;27;20749;-30
2021/01/08 10:57:15;;;;;;;16.17;10.57;;;3.50;99.90;;;;;;5105078;27;20932;-28
2021/01/08 10:59:52;;;;;;;14.70;10.67;;;3.60;99.90;;;;;;5108380;27;20500;-28
2021/01/08 11:02:20;;;;;;;12.27;11.03;;;3.70;99.90;;;;;;5111437;27;20449;-30
2021/01/08 11:04:47;;;;;;;13.70;11.67;;;3.70;99.90;;;;;;5095940;27;20583;-28
2021/01/08 11:07:13;;;;;;;18.20;12.43;;;3.70;99.90;;;;;;5106590;27;20521;-27
2021/01/08 11:09:40;;;;;;;13.60;11.20;;;3.70;99.90;;;;;;5113434;27;20515;-28
2021/01/08 11:12:08;;;;;;;15.00;10.43;;;3.80;99.90;;;;;;5101671;27;20446;-28
2021/01/08 11:14:35;;;;;;;13.63;9.23;;;3.80;99.90;;;;;;5100711;27;20481;-32
2021/01/08 11:17:07;;;;;;;12.23;9.90;;;3.70;99.90;;;;;;5110676;27;20503;-30
2021/01/08 11:19:35;;;;;;;15.73;10.40;;;3.80;99.90;;;;;;5108159;27;20586;-29
2021/01/08 11:22:02;;;;;;;12.67;10.03;;;3.90;99.90;;;;;;5109379;27;20452;-30
2021/01/08 11:24:30;;;;;;;11.00;9.07;;;3.90;99.90;;;;;;5111389;27;21296;-30
2021/01/08 11:27:00;;;;;;;13.00;9.60;;;4.00;99.90;;;;;;5110222;27;20481;-34
2021/01/08 11:29:26;;;;;;;14.47;10.50;;;4.10;99.90;;;;;;5106580;27;20476;-30
2021/01/08 11:31:54;;;;;;;12.13;9.63;;;4.20;99.90;;;;;;5109533;27;20485;-27
2021/01/08 11:34:23;;;;;;;14.57;11.00;;;4.00;99.90;;;;;;5112883;27;20777;-28
2021/01/08 11:36:55;;;;;;;11.80;10.60;;;3.90;99.90;;;;;;5113770;27;20441;-27
2021/01/08 11:39:24;;;;;;;12.10;10.00;;;3.80;99.90;;;;;;5111893;27;20449;-28
2021/01/08 11:41:55;;;;;;;12.73;10.33;;;3.80;99.90;;;;;;5123986;27;20489;-28
2021/01/08 11:44:22;;;;;;;11.00;9.93;;;3.80;99.90;;;;;;5110724;27;20487;-29
2021/01/08 11:46:50;;;;;;;13.70;9.70;;;3.80;99.90;;;;;;5107220;27;20461;-30
2021/01/08 11:49:17;;;;;;;12.80;10.00;;;3.80;99.90;;;;;;5115565;27;20476;-29
2021/01/08 11:51:44;;;;;;;17.40;12.37;;;3.80;99.90;;;;;;5125105;27;20924;-27
2021/01/08 11:54:12;;;;;;;14.90;11.90;;;3.80;99.90;;;;;;5111389;27;20465;-27
2021/01/08 11:56:39;;;;;;;14.10;11.47;;;3.80;99.90;;;;;;5107963;27;20430;-28
2021/01/08 11:59:05;;;;;;;15.17;12.37;;;3.90;99.90;;;;;;5096394;27;21124;-30
2021/01/08 12:01:32;;;;;;;11.40;9.30;;;3.90;99.90;;;;;;5102822;27;20442;-29
2021/01/08 12:04:00;;;;;;;12.67;10.43;;;4.00;99.90;;;;;;5107069;27;20470;-29
2021/01/08 12:06:28;;;;;;;11.03;9.90;;;4.00;99.90;;;;;;5111684;27;20547;-30
2021/01/08 12:08:56;;;;;;;11.10;8.50;;;4.00;99.90;;;;;;5120075;27;21046;-29
2021/01/08 12:17:50;;;;;;;10.40;7.77;;;3.50;99.90;;;;;;5115423;27;20550;-29
2021/01/08 12:20:17;;;;;;;8.87;7.03;;;3.50;99.90;;;;;;5121506;27;20448;-30
2021/01/08 12:22:44;;;;;;;10.60;8.63;;;3.40;99.90;;;;;;5130427;27;20436;-28
2021/01/08 12:25:13;;;;;;;11.80;8.73;;;3.30;99.90;;;;;;5121810;27;20438;-29
2021/01/08 12:27:41;;;;;;;9.50;8.30;;;3.20;99.90;;;;;;5114249;27;20432;-29
2021/01/08 12:30:09;;;;;;;10.50;9.03;;;3.20;99.90;;;;;;5129084;27;20498;-29
2021/01/08 12:32:35;;;;;;;9.67;8.23;;;3.10;99.90;;;;;;5115723;27;21289;-28
2021/01/08 12:35:02;;;;;;;9.63;7.47;;;3.00;99.90;;;;;;5109020;27;20580;-27
2021/01/08 12:37:29;;;;;;;10.00;8.30;;;3.00;99.90;;;;;;5120269;27;20450;-29
2021/01/08 12:39:55;;;;;;;9.30;7.73;;;3.00;99.90;;;;;;5107990;28;20461;-28
2021/01/08 12:42:23;;;;;;;10.33;7.90;;;3.00;99.90;;;;;;5122242;27;20441;-28
2021/01/08 12:44:49;;;;;;;11.40;8.07;;;3.00;99.90;;;;;;5124028;27;20697;-28
2021/01/08 12:47:17;;;;;;;9.03;8.13;;;3.10;99.90;;;;;;5109491;27;20437;-28
2021/01/08 12:49:45;;;;;;;8.83;8.00;;;3.20;99.90;;;;;;5124862;27;20497;-28
2021/01/08 12:52:11;;;;;;;9.70;7.60;;;3.30;99.90;;;;;;5129042;27;20448;-27